sensor_id;sensor_type;location;lat;lon;timestamp;P1;durP1;ratioP1;P2;durP2;ratioP2
11054;SDS011;5580;50.106;8.702;2023-05-20T00:01:36;6.60;;;4.53;;
11054;SDS011;5580;50.106;8.702;2023-05-20T00:04:01;6.50;;;4.20;;
11054;SDS011;5580;50.106;8.702;2023-05-20T00:06:27;8.37;;;4.57;;
11054;SDS011;5580;50.106;8.702;2023-05-20T00:08:53;9.03;;;4.70;;
11054;SDS011;5580;50.106;8.702;2023-05-20T00:11:19;6.33;;;4.40;;
11054;SDS011;5580;50.106;8.702;2023-05-20T00:13:45;7.27;;;4.43;;
11054;SDS011;5580;50.106;8.702;2023-05-20T00:16:11;5.93;;;4.07;;
11054;SDS011;5580;50.106;8.702;2023-05-20T00:18:37;6.20;;;4.47;;
11054;SDS011;5580;50.106;8.702;2023-05-20T00:21:02;6.87;;;4.60;;
11054;SDS011;5580;50.106;8.702;2023-05-20T00:23:28;8.37;;;4.70;;
11054;SDS011;5580;50.106;8.702;2023-05-20T00:25:54;5.10;;;4.20;;
11054;SDS011;5580;50.106;8.702;2023-05-20T00:28:19;6.70;;;4.70;;
11054;SDS011;5580;50.106;8.702;2023-05-20T00:30:46;9.63;;;4.60;;
11054;SDS011;5580;50.106;8.702;2023-05-20T00:33:12;9.20;;;4.43;;
11054;SDS011;5580;50.106;8.702;2023-05-20T00:35:38;7.33;;;4.73;;
11054;SDS011;5580;50.106;8.702;2023-05-20T00:38:03;6.10;;;4.37;;
11054;SDS011;5580;50.106;8.702;2023-05-20T00:40:29;6.17;;;4.63;;
11054;SDS011;5580;50.106;8.702;2023-05-20T00:42:55;7.23;;;4.60;;
11054;SDS011;5580;50.106;8.702;2023-05-20T00:45:20;7.40;;;4.73;;
11054;SDS011;5580;50.106;8.702;2023-05-20T00:47:46;8.43;;;4.70;;
11054;SDS011;5580;50.106;8.702;2023-05-20T00:50:12;6.93;;;4.57;;
11054;SDS011;5580;50.106;8.702;2023-05-20T00:52:38;6.27;;;4.43;;
11054;SDS011;5580;50.106;8.702;2023-05-20T00:55:05;7.30;;;4.83;;
11054;SDS011;5580;50.106;8.702;2023-05-20T00:57:31;6.87;;;4.60;;
11054;SDS011;5580;50.106;8.702;2023-05-20T01:00:01;7.90;;;4.57;;
11054;SDS011;5580;50.106;8.702;2023-05-20T01:02:27;10.70;;;4.97;;
11054;SDS011;5580;50.106;8.702;2023-05-20T01:04:54;6.93;;;4.67;;
11054;SDS011;5580;50.106;8.702;2023-05-20T01:07:20;8.63;;;4.60;;
11054;SDS011;5580;50.106;8.702;2023-05-20T01:09:46;8.27;;;5.00;;
11054;SDS011;5580;50.106;8.702;2023-05-20T01:12:14;6.93;;;4.50;;
11054;SDS011;5580;50.106;8.702;2023-05-20T01:17:38;9.00;;;4.57;;
11054;SDS011;5580;50.106;8.702;2023-05-20T01:20:06;9.33;;;4.90;;
11054;SDS011;5580;50.106;8.702;2023-05-20T01:22:57;7.63;;;4.60;;
11054;SDS011;5580;50.106;8.702;2023-05-20T01:25:22;6.17;;;4.57;;
11054;SDS011;5580;50.106;8.702;2023-05-20T01:27:49;7.97;;;4.70;;
11054;SDS011;5580;50.106;8.702;2023-05-20T01:30:16;8.30;;;4.73;;
11054;SDS011;5580;50.106;8.702;2023-05-20T01:32:44;7.63;;;4.60;;
11054;SDS011;5580;50.106;8.702;2023-05-20T01:35:15;6.20;;;4.80;;
11054;SDS011;5580;50.106;8.702;2023-05-20T01:37:41;8.70;;;4.90;;
11054;SDS011;5580;50.106;8.702;2023-05-20T01:40:08;8.13;;;4.90;;
11054;SDS011;5580;50.106;8.702;2023-05-20T01:42:34;9.40;;;5.07;;
11054;SDS011;5580;50.106;8.702;2023-05-20T01:45:01;6.33;;;4.60;;
11054;SDS011;5580;50.106;8.702;2023-05-20T01:47:27;6.77;;;4.70;;
11054;SDS011;5580;50.106;8.702;2023-05-20T01:49:53;6.67;;;4.70;;
11054;SDS011;5580;50.106;8.702;2023-05-20T01:52:19;9.63;;;5.07;;
11054;SDS011;5580;50.106;8.702;2023-05-20T01:54:45;6.90;;;4.90;;
11054;SDS011;5580;50.106;8.702;2023-05-20T01:57:15;8.27;;;4.97;;
11054;SDS011;5580;50.106;8.702;2023-05-20T01:59:42;8.63;;;4.87;;
11054;SDS011;5580;50.106;8.702;2023-05-20T02:02:08;6.63;;;4.63;;
11054;SDS011;5580;50.106;8.702;2023-05-20T02:04:34;7.97;;;4.70;;
11054;SDS011;5580;50.106;8.702;2023-05-20T02:06:59;6.77;;;4.83;;
11054;SDS011;5580;50.106;8.702;2023-05-20T02:09:25;6.37;;;5.33;;
11054;SDS011;5580;50.106;8.702;2023-05-20T02:11:51;8.63;;;4.90;;
11054;SDS011;5580;50.106;8.702;2023-05-20T02:14:20;6.57;;;4.50;;
11054;SDS011;5580;50.106;8.702;2023-05-20T02:16:45;11.13;;;4.93;;
11054;SDS011;5580;50.106;8.702;2023-05-20T02:19:11;8.67;;;5.00;;
11054;SDS011;5580;50.106;8.702;2023-05-20T02:21:38;6.83;;;4.90;;
11054;SDS011;5580;50.106;8.702;2023-05-20T02:24:07;5.50;;;4.67;;
11054;SDS011;5580;50.106;8.702;2023-05-20T02:26:35;9.30;;;4.77;;
11054;SDS011;5580;50.106;8.702;2023-05-20T02:29:01;11.93;;;5.83;;
11054;SDS011;5580;50.106;8.702;2023-05-20T02:31:26;8.47;;;5.07;;
11054;SDS011;5580;50.106;8.702;2023-05-20T02:33:52;9.67;;;4.93;;
11054;SDS011;5580;50.106;8.702;2023-05-20T02:36:17;7.70;;;5.20;;
11054;SDS011;5580;50.106;8.702;2023-05-20T02:38:43;7.50;;;4.80;;
11054;SDS011;5580;50.106;8.702;2023-05-20T02:41:11;9.30;;;4.90;;
11054;SDS011;5580;50.106;8.702;2023-05-20T02:43:37;8.33;;;5.13;;
11054;SDS011;5580;50.106;8.702;2023-05-20T02:46:03;7.63;;;5.00;;
11054;SDS011;5580;50.106;8.702;2023-05-20T02:48:28;7.17;;;5.00;;
11054;SDS011;5580;50.106;8.702;2023-05-20T02:50:54;7.83;;;5.37;;
11054;SDS011;5580;50.106;8.702;2023-05-20T02:53:19;7.53;;;5.23;;
11054;SDS011;5580;50.106;8.702;2023-05-20T02:55:45;9.03;;;5.40;;
11054;SDS011;5580;50.106;8.702;2023-05-20T02:58:11;8.27;;;5.17;;
11054;SDS011;5580;50.106;8.702;2023-05-20T03:00:37;8.60;;;5.17;;
11054;SDS011;5580;50.106;8.702;2023-05-20T03:03:05;8.43;;;5.47;;
11054;SDS011;5580;50.106;8.702;2023-05-20T03:05:31;7.47;;;5.40;;
11054;SDS011;5580;50.106;8.702;2023-05-20T03:07:57;9.37;;;5.30;;
11054;SDS011;5580;50.106;8.702;2023-05-20T03:10:23;9.27;;;5.23;;
11054;SDS011;5580;50.106;8.702;2023-05-20T03:12:48;9.33;;;5.40;;
11054;SDS011;5580;50.106;8.702;2023-05-20T03:15:14;10.67;;;5.77;;
11054;SDS011;5580;50.106;8.702;2023-05-20T03:17:40;9.07;;;5.50;;
11054;SDS011;5580;50.106;8.702;2023-05-20T03:20:05;9.67;;;5.57;;
11054;SDS011;5580;50.106;8.702;2023-05-20T03:22:32;8.87;;;5.70;;
11054;SDS011;5580;50.106;8.702;2023-05-20T03:24:57;10.07;;;5.70;;
11054;SDS011;5580;50.106;8.702;2023-05-20T03:27:24;10.03;;;5.80;;
11054;SDS011;5580;50.106;8.702;2023-05-20T03:29:53;11.13;;;5.43;;
11054;SDS011;5580;50.106;8.702;2023-05-20T03:32:19;9.67;;;5.80;;
11054;SDS011;5580;50.106;8.702;2023-05-20T03:34:45;10.50;;;5.90;;
11054;SDS011;5580;50.106;8.702;2023-05-20T03:37:10;8.83;;;6.20;;
11054;SDS011;5580;50.106;8.702;2023-05-20T03:39:36;10.67;;;5.77;;
11054;SDS011;5580;50.106;8.702;2023-05-20T03:42:01;10.83;;;5.90;;
11054;SDS011;5580;50.106;8.702;2023-05-20T03:44:27;8.40;;;5.57;;
11054;SDS011;5580;50.106;8.702;2023-05-20T03:46:52;12.10;;;6.20;;
11054;SDS011;5580;50.106;8.702;2023-05-20T03:49:18;8.87;;;6.00;;
11054;SDS011;5580;50.106;8.702;2023-05-20T03:51:43;10.10;;;5.43;;
11054;SDS011;5580;50.106;8.702;2023-05-20T03:54:09;9.43;;;5.80;;
11054;SDS011;5580;50.106;8.702;2023-05-20T03:56:35;9.57;;;5.60;;
11054;SDS011;5580;50.106;8.702;2023-05-20T03:59:00;9.47;;;6.10;;
11054;SDS011;5580;50.106;8.702;2023-05-20T04:01:26;13.43;;;6.53;;
11054;SDS011;5580;50.106;8.702;2023-05-20T04:03:54;9.97;;;6.00;;
11054;SDS011;5580;50.106;8.702;2023-05-20T04:06:19;11.00;;;6.00;;
11054;SDS011;5580;50.106;8.702;2023-05-20T04:08:46;8.90;;;5.67;;
11054;SDS011;5580;50.106;8.702;2023-05-20T04:11:12;11.00;;;5.77;;
11054;SDS011;5580;50.106;8.702;2023-05-20T04:13:37;10.40;;;6.20;;
11054;SDS011;5580;50.106;8.702;2023-05-20T04:16:03;10.20;;;5.97;;
11054;SDS011;5580;50.106;8.702;2023-05-20T04:18:29;10.90;;;6.13;;
11054;SDS011;5580;50.106;8.702;2023-05-20T04:20:55;11.47;;;6.13;;
11054;SDS011;5580;50.106;8.702;2023-05-20T04:23:21;9.77;;;6.30;;
11054;SDS011;5580;50.106;8.702;2023-05-20T04:25:47;11.07;;;6.23;;
11054;SDS011;5580;50.106;8.702;2023-05-20T04:28:13;9.77;;;6.00;;
11054;SDS011;5580;50.106;8.702;2023-05-20T04:30:40;9.63;;;6.37;;
11054;SDS011;5580;50.106;8.702;2023-05-20T04:33:06;8.93;;;6.03;;
11054;SDS011;5580;50.106;8.702;2023-05-20T04:35:32;10.17;;;6.30;;
11054;SDS011;5580;50.106;8.702;2023-05-20T04:37:59;10.03;;;6.20;;
11054;SDS011;5580;50.106;8.702;2023-05-20T04:40:27;10.67;;;6.30;;
11054;SDS011;5580;50.106;8.702;2023-05-20T04:42:52;10.57;;;6.10;;
11054;SDS011;5580;50.106;8.702;2023-05-20T04:45:18;13.77;;;6.27;;
11054;SDS011;5580;50.106;8.702;2023-05-20T04:47:44;10.60;;;6.50;;
11054;SDS011;5580;50.106;8.702;2023-05-20T04:50:10;9.97;;;6.43;;
11054;SDS011;5580;50.106;8.702;2023-05-20T04:52:39;9.53;;;6.40;;
11054;SDS011;5580;50.106;8.702;2023-05-20T04:55:09;10.87;;;6.70;;
11054;SDS011;5580;50.106;8.702;2023-05-20T04:57:36;10.83;;;6.50;;
11054;SDS011;5580;50.106;8.702;2023-05-20T05:00:05;10.67;;;6.57;;
11054;SDS011;5580;50.106;8.702;2023-05-20T05:02:35;11.83;;;6.70;;
11054;SDS011;5580;50.106;8.702;2023-05-20T05:05:01;11.53;;;6.80;;
11054;SDS011;5580;50.106;8.702;2023-05-20T05:07:27;10.60;;;6.50;;
11054;SDS011;5580;50.106;8.702;2023-05-20T05:09:52;12.30;;;6.93;;
11054;SDS011;5580;50.106;8.702;2023-05-20T05:12:18;13.03;;;7.30;;
11054;SDS011;5580;50.106;8.702;2023-05-20T05:14:43;10.27;;;6.90;;
11054;SDS011;5580;50.106;8.702;2023-05-20T05:17:09;9.27;;;6.40;;
11054;SDS011;5580;50.106;8.702;2023-05-20T05:19:35;11.47;;;6.60;;
11054;SDS011;5580;50.106;8.702;2023-05-20T05:22:00;10.63;;;7.10;;
11054;SDS011;5580;50.106;8.702;2023-05-20T05:24:26;12.13;;;6.87;;
11054;SDS011;5580;50.106;8.702;2023-05-20T05:26:54;10.23;;;6.90;;
11054;SDS011;5580;50.106;8.702;2023-05-20T05:29:20;11.47;;;6.90;;
11054;SDS011;5580;50.106;8.702;2023-05-20T05:31:46;11.57;;;6.97;;
11054;SDS011;5580;50.106;8.702;2023-05-20T05:34:12;12.43;;;7.10;;
11054;SDS011;5580;50.106;8.702;2023-05-20T05:36:39;9.97;;;6.77;;
11054;SDS011;5580;50.106;8.702;2023-05-20T05:39:05;10.33;;;7.00;;
11054;SDS011;5580;50.106;8.702;2023-05-20T05:41:30;12.17;;;6.67;;
11054;SDS011;5580;50.106;8.702;2023-05-20T05:43:57;10.57;;;6.90;;
11054;SDS011;5580;50.106;8.702;2023-05-20T05:46:23;11.87;;;7.30;;
11054;SDS011;5580;50.106;8.702;2023-05-20T05:48:48;10.80;;;7.00;;
11054;SDS011;5580;50.106;8.702;2023-05-20T05:51:15;13.00;;;7.83;;
11054;SDS011;5580;50.106;8.702;2023-05-20T05:53:40;11.33;;;7.10;;
11054;SDS011;5580;50.106;8.702;2023-05-20T05:56:06;12.13;;;7.00;;
11054;SDS011;5580;50.106;8.702;2023-05-20T05:58:32;10.77;;;7.20;;
11054;SDS011;5580;50.106;8.702;2023-05-20T06:00:58;10.53;;;7.40;;
11054;SDS011;5580;50.106;8.702;2023-05-20T06:03:23;12.13;;;7.47;;
11054;SDS011;5580;50.106;8.702;2023-05-20T06:05:49;14.53;;;7.57;;
11054;SDS011;5580;50.106;8.702;2023-05-20T06:08:15;12.03;;;7.10;;
11054;SDS011;5580;50.106;8.702;2023-05-20T06:10:40;11.77;;;7.30;;
11054;SDS011;5580;50.106;8.702;2023-05-20T06:13:10;11.97;;;7.33;;
11054;SDS011;5580;50.106;8.702;2023-05-20T06:15:36;10.87;;;7.40;;
11054;SDS011;5580;50.106;8.702;2023-05-20T06:18:03;13.60;;;7.63;;
11054;SDS011;5580;50.106;8.702;2023-05-20T06:20:29;11.60;;;7.93;;
11054;SDS011;5580;50.106;8.702;2023-05-20T06:22:54;13.37;;;7.70;;
11054;SDS011;5580;50.106;8.702;2023-05-20T06:25:20;11.43;;;7.90;;
11054;SDS011;5580;50.106;8.702;2023-05-20T06:27:47;13.80;;;8.20;;
11054;SDS011;5580;50.106;8.702;2023-05-20T06:30:12;13.03;;;8.10;;
11054;SDS011;5580;50.106;8.702;2023-05-20T06:32:38;12.43;;;7.63;;
11054;SDS011;5580;50.106;8.702;2023-05-20T06:35:04;13.13;;;8.10;;
11054;SDS011;5580;50.106;8.702;2023-05-20T06:37:32;14.30;;;8.33;;
11054;SDS011;5580;50.106;8.702;2023-05-20T06:39:58;14.23;;;8.53;;
11054;SDS011;5580;50.106;8.702;2023-05-20T06:42:23;13.77;;;8.87;;
11054;SDS011;5580;50.106;8.702;2023-05-20T06:44:49;12.30;;;8.07;;
11054;SDS011;5580;50.106;8.702;2023-05-20T06:47:15;12.77;;;8.30;;
11054;SDS011;5580;50.106;8.702;2023-05-20T06:49:44;15.03;;;8.67;;
11054;SDS011;5580;50.106;8.702;2023-05-20T06:52:09;12.67;;;8.53;;
11054;SDS011;5580;50.106;8.702;2023-05-20T06:54:36;14.87;;;8.80;;
11054;SDS011;5580;50.106;8.702;2023-05-20T06:57:08;12.67;;;9.10;;
11054;SDS011;5580;50.106;8.702;2023-05-20T06:59:34;14.63;;;8.90;;
11054;SDS011;5580;50.106;8.702;2023-05-20T07:02:01;12.60;;;8.70;;
11054;SDS011;5580;50.106;8.702;2023-05-20T07:04:27;13.17;;;8.93;;
11054;SDS011;5580;50.106;8.702;2023-05-20T07:06:53;13.90;;;9.27;;
11054;SDS011;5580;50.106;8.702;2023-05-20T07:09:18;14.93;;;10.10;;
11054;SDS011;5580;50.106;8.702;2023-05-20T07:11:44;15.53;;;10.17;;
11054;SDS011;5580;50.106;8.702;2023-05-20T07:14:09;14.63;;;9.70;;
11054;SDS011;5580;50.106;8.702;2023-05-20T07:16:35;13.03;;;9.70;;
11054;SDS011;5580;50.106;8.702;2023-05-20T07:19:01;16.30;;;9.67;;
11054;SDS011;5580;50.106;8.702;2023-05-20T07:21:27;14.50;;;9.33;;
11054;SDS011;5580;50.106;8.702;2023-05-20T07:23:53;14.27;;;9.20;;
11054;SDS011;5580;50.106;8.702;2023-05-20T07:26:18;14.40;;;9.83;;
11054;SDS011;5580;50.106;8.702;2023-05-20T07:28:45;15.07;;;10.07;;
11054;SDS011;5580;50.106;8.702;2023-05-20T07:31:11;15.83;;;10.40;;
11054;SDS011;5580;50.106;8.702;2023-05-20T07:33:37;14.63;;;10.23;;
11054;SDS011;5580;50.106;8.702;2023-05-20T07:36:03;13.40;;;9.60;;
11054;SDS011;5580;50.106;8.702;2023-05-20T07:38:29;15.70;;;9.80;;
11054;SDS011;5580;50.106;8.702;2023-05-20T07:40:54;13.97;;;10.17;;
11054;SDS011;5580;50.106;8.702;2023-05-20T07:43:20;15.37;;;10.53;;
11054;SDS011;5580;50.106;8.702;2023-05-20T07:45:46;17.50;;;10.70;;
11054;SDS011;5580;50.106;8.702;2023-05-20T07:48:11;16.40;;;10.13;;
11054;SDS011;5580;50.106;8.702;2023-05-20T07:50:37;16.33;;;10.77;;
11054;SDS011;5580;50.106;8.702;2023-05-20T07:53:04;13.73;;;10.20;;
11054;SDS011;5580;50.106;8.702;2023-05-20T07:55:32;15.47;;;10.30;;
11054;SDS011;5580;50.106;8.702;2023-05-20T07:57:59;16.03;;;10.77;;
11054;SDS011;5580;50.106;8.702;2023-05-20T08:00:24;14.63;;;10.07;;
11054;SDS011;5580;50.106;8.702;2023-05-20T08:02:50;14.47;;;11.00;;
11054;SDS011;5580;50.106;8.702;2023-05-20T08:05:16;15.17;;;10.50;;
11054;SDS011;5580;50.106;8.702;2023-05-20T08:07:41;17.50;;;10.90;;
11054;SDS011;5580;50.106;8.702;2023-05-20T08:10:07;17.50;;;11.03;;
11054;SDS011;5580;50.106;8.702;2023-05-20T08:12:33;17.87;;;10.57;;
11054;SDS011;5580;50.106;8.702;2023-05-20T08:14:58;15.63;;;11.27;;
11054;SDS011;5580;50.106;8.702;2023-05-20T08:17:24;15.37;;;10.93;;
11054;SDS011;5580;50.106;8.702;2023-05-20T08:19:50;16.73;;;10.70;;
11054;SDS011;5580;50.106;8.702;2023-05-20T08:22:15;14.60;;;11.23;;
11054;SDS011;5580;50.106;8.702;2023-05-20T08:24:41;14.87;;;11.07;;
11054;SDS011;5580;50.106;8.702;2023-05-20T08:27:07;16.47;;;10.67;;
11054;SDS011;5580;50.106;8.702;2023-05-20T08:29:32;14.50;;;10.80;;
11054;SDS011;5580;50.106;8.702;2023-05-20T08:31:58;15.63;;;10.60;;
11054;SDS011;5580;50.106;8.702;2023-05-20T08:34:23;17.50;;;10.90;;
11054;SDS011;5580;50.106;8.702;2023-05-20T08:36:49;17.23;;;11.80;;
11054;SDS011;5580;50.106;8.702;2023-05-20T08:39:15;15.43;;;11.07;;
11054;SDS011;5580;50.106;8.702;2023-05-20T08:41:41;16.07;;;10.40;;
11054;SDS011;5580;50.106;8.702;2023-05-20T08:44:07;15.40;;;11.10;;
11054;SDS011;5580;50.106;8.702;2023-05-20T08:46:35;15.13;;;10.80;;
11054;SDS011;5580;50.106;8.702;2023-05-20T08:49:02;17.33;;;11.40;;
11054;SDS011;5580;50.106;8.702;2023-05-20T08:51:27;15.63;;;11.07;;
11054;SDS011;5580;50.106;8.702;2023-05-20T08:53:58;14.93;;;11.07;;
11054;SDS011;5580;50.106;8.702;2023-05-20T08:56:24;15.20;;;11.23;;
11054;SDS011;5580;50.106;8.702;2023-05-20T08:58:51;15.73;;;11.97;;
11054;SDS011;5580;50.106;8.702;2023-05-20T09:01:17;15.63;;;11.40;;
11054;SDS011;5580;50.106;8.702;2023-05-20T09:03:43;16.47;;;12.10;;
11054;SDS011;5580;50.106;8.702;2023-05-20T09:06:09;14.83;;;11.17;;
11054;SDS011;5580;50.106;8.702;2023-05-20T09:08:35;14.60;;;11.33;;
11054;SDS011;5580;50.106;8.702;2023-05-20T09:11:01;17.30;;;11.63;;
11054;SDS011;5580;50.106;8.702;2023-05-20T09:13:28;16.40;;;11.93;;
11054;SDS011;5580;50.106;8.702;2023-05-20T09:15:56;15.33;;;11.37;;
11054;SDS011;5580;50.106;8.702;2023-05-20T09:18:24;14.27;;;11.23;;
11054;SDS011;5580;50.106;8.702;2023-05-20T09:20:50;15.40;;;11.20;;
11054;SDS011;5580;50.106;8.702;2023-05-20T09:23:19;15.07;;;11.73;;
11054;SDS011;5580;50.106;8.702;2023-05-20T09:25:47;16.13;;;11.07;;
11054;SDS011;5580;50.106;8.702;2023-05-20T09:28:15;16.10;;;12.30;;
11054;SDS011;5580;50.106;8.702;2023-05-20T09:30:43;15.63;;;11.57;;
11054;SDS011;5580;50.106;8.702;2023-05-20T09:33:10;17.17;;;11.97;;
11054;SDS011;5580;50.106;8.702;2023-05-20T09:35:36;14.60;;;11.97;;
11054;SDS011;5580;50.106;8.702;2023-05-20T09:38:02;15.73;;;11.60;;
11054;SDS011;5580;50.106;8.702;2023-05-20T09:40:30;16.13;;;12.50;;
11054;SDS011;5580;50.106;8.702;2023-05-20T09:42:58;17.30;;;12.10;;
11054;SDS011;5580;50.106;8.702;2023-05-20T09:45:27;16.00;;;11.97;;
11054;SDS011;5580;50.106;8.702;2023-05-20T09:47:53;15.63;;;11.73;;
11054;SDS011;5580;50.106;8.702;2023-05-20T09:50:20;16.00;;;11.50;;
11054;SDS011;5580;50.106;8.702;2023-05-20T09:52:47;15.70;;;11.80;;
11054;SDS011;5580;50.106;8.702;2023-05-20T09:55:15;15.07;;;11.80;;
11054;SDS011;5580;50.106;8.702;2023-05-20T09:57:45;21.73;;;11.93;;
11054;SDS011;5580;50.106;8.702;2023-05-20T10:00:11;17.40;;;13.00;;
11054;SDS011;5580;50.106;8.702;2023-05-20T10:02:44;15.83;;;11.50;;
11054;SDS011;5580;50.106;8.702;2023-05-20T10:05:16;17.20;;;12.40;;
11054;SDS011;5580;50.106;8.702;2023-05-20T10:10:40;16.70;;;12.20;;
11054;SDS011;5580;50.106;8.702;2023-05-20T10:16:11;16.20;;;11.80;;
11054;SDS011;5580;50.106;8.702;2023-05-20T10:21:44;15.13;;;11.43;;
11054;SDS011;5580;50.106;8.702;2023-05-20T10:24:29;16.47;;;11.73;;
11054;SDS011;5580;50.106;8.702;2023-05-20T10:27:00;16.90;;;12.17;;
11054;SDS011;5580;50.106;8.702;2023-05-20T10:29:27;16.90;;;12.20;;
11054;SDS011;5580;50.106;8.702;2023-05-20T10:31:53;18.80;;;11.73;;
11054;SDS011;5580;50.106;8.702;2023-05-20T10:34:20;14.23;;;11.80;;
11054;SDS011;5580;50.106;8.702;2023-05-20T10:39:18;17.43;;;11.80;;
11054;SDS011;5580;50.106;8.702;2023-05-20T10:41:44;17.47;;;11.50;;
11054;SDS011;5580;50.106;8.702;2023-05-20T10:44:09;16.00;;;11.90;;
11054;SDS011;5580;50.106;8.702;2023-05-20T10:46:35;17.90;;;11.83;;
11054;SDS011;5580;50.106;8.702;2023-05-20T10:49:01;16.37;;;12.00;;
11054;SDS011;5580;50.106;8.702;2023-05-20T10:51:27;15.27;;;11.87;;
11054;SDS011;5580;50.106;8.702;2023-05-20T10:53:55;15.03;;;11.37;;
11054;SDS011;5580;50.106;8.702;2023-05-20T10:56:22;16.27;;;12.17;;
11054;SDS011;5580;50.106;8.702;2023-05-20T10:58:51;15.10;;;11.70;;
11054;SDS011;5580;50.106;8.702;2023-05-20T11:01:18;15.40;;;11.27;;
11054;SDS011;5580;50.106;8.702;2023-05-20T11:03:49;17.30;;;11.97;;
11054;SDS011;5580;50.106;8.702;2023-05-20T11:06:16;17.40;;;11.73;;
11054;SDS011;5580;50.106;8.702;2023-05-20T11:08:43;15.23;;;11.30;;
11054;SDS011;5580;50.106;8.702;2023-05-20T11:11:10;17.80;;;11.80;;
11054;SDS011;5580;50.106;8.702;2023-05-20T11:13:36;16.77;;;12.10;;
11054;SDS011;5580;50.106;8.702;2023-05-20T11:16:02;18.13;;;11.40;;
11054;SDS011;5580;50.106;8.702;2023-05-20T11:18:28;15.07;;;11.03;;
11054;SDS011;5580;50.106;8.702;2023-05-20T11:20:56;14.80;;;11.30;;
11054;SDS011;5580;50.106;8.702;2023-05-20T11:23:25;16.60;;;11.43;;
11054;SDS011;5580;50.106;8.702;2023-05-20T11:25:52;13.83;;;10.20;;
11054;SDS011;5580;50.106;8.702;2023-05-20T11:28:18;17.10;;;11.13;;
11054;SDS011;5580;50.106;8.702;2023-05-20T11:30:47;16.37;;;11.53;;
11054;SDS011;5580;50.106;8.702;2023-05-20T11:33:14;15.00;;;10.83;;
11054;SDS011;5580;50.106;8.702;2023-05-20T11:35:47;14.30;;;11.07;;
11054;SDS011;5580;50.106;8.702;2023-05-20T11:38:14;15.03;;;11.33;;
11054;SDS011;5580;50.106;8.702;2023-05-20T11:40:50;16.27;;;11.00;;
11054;SDS011;5580;50.106;8.702;2023-05-20T11:43:17;14.70;;;11.60;;
11054;SDS011;5580;50.106;8.702;2023-05-20T11:45:44;15.83;;;11.40;;
11054;SDS011;5580;50.106;8.702;2023-05-20T11:48:22;15.83;;;11.40;;
11054;SDS011;5580;50.106;8.702;2023-05-20T11:50:48;15.43;;;10.87;;
11054;SDS011;5580;50.106;8.702;2023-05-20T11:53:14;16.43;;;10.90;;
11054;SDS011;5580;50.106;8.702;2023-05-20T11:55:59;16.63;;;11.73;;
11054;SDS011;5580;50.106;8.702;2023-05-20T11:58:29;15.60;;;11.80;;
11054;SDS011;5580;50.106;8.702;2023-05-20T12:00:55;14.77;;;11.50;;
11054;SDS011;5580;50.106;8.702;2023-05-20T12:03:21;16.80;;;11.60;;
11054;SDS011;5580;50.106;8.702;2023-05-20T12:05:47;16.93;;;12.27;;
11054;SDS011;5580;50.106;8.702;2023-05-20T12:08:14;16.20;;;11.10;;
11054;SDS011;5580;50.106;8.702;2023-05-20T12:10:40;16.30;;;11.77;;
11054;SDS011;5580;50.106;8.702;2023-05-20T12:13:06;15.53;;;11.23;;
11054;SDS011;5580;50.106;8.702;2023-05-20T12:15:35;19.00;;;11.57;;
11054;SDS011;5580;50.106;8.702;2023-05-20T12:18:01;17.03;;;11.63;;
11054;SDS011;5580;50.106;8.702;2023-05-20T12:20:27;17.50;;;11.40;;
11054;SDS011;5580;50.106;8.702;2023-05-20T12:22:54;14.53;;;11.23;;
11054;SDS011;5580;50.106;8.702;2023-05-20T12:25:19;15.53;;;11.73;;
11054;SDS011;5580;50.106;8.702;2023-05-20T12:27:46;16.37;;;12.40;;
11054;SDS011;5580;50.106;8.702;2023-05-20T12:30:16;15.83;;;12.23;;
11054;SDS011;5580;50.106;8.702;2023-05-20T12:32:43;16.27;;;11.77;;
11054;SDS011;5580;50.106;8.702;2023-05-20T12:35:09;17.70;;;11.93;;
11054;SDS011;5580;50.106;8.702;2023-05-20T12:37:36;16.70;;;12.50;;
11054;SDS011;5580;50.106;8.702;2023-05-20T12:40:02;16.80;;;11.67;;
11054;SDS011;5580;50.106;8.702;2023-05-20T12:42:36;16.60;;;12.10;;
11054;SDS011;5580;50.106;8.702;2023-05-20T12:45:02;15.77;;;11.77;;
11054;SDS011;5580;50.106;8.702;2023-05-20T12:47:28;16.50;;;11.47;;
11054;SDS011;5580;50.106;8.702;2023-05-20T12:49:54;18.90;;;12.73;;
11054;SDS011;5580;50.106;8.702;2023-05-20T12:52:20;16.80;;;11.87;;
11054;SDS011;5580;50.106;8.702;2023-05-20T12:54:45;18.17;;;13.07;;
11054;SDS011;5580;50.106;8.702;2023-05-20T12:57:11;16.37;;;12.37;;
11054;SDS011;5580;50.106;8.702;2023-05-20T12:59:36;16.87;;;12.43;;
11054;SDS011;5580;50.106;8.702;2023-05-20T13:02:02;20.97;;;13.07;;
11054;SDS011;5580;50.106;8.702;2023-05-20T13:04:28;16.40;;;12.40;;
11054;SDS011;5580;50.106;8.702;2023-05-20T13:06:53;18.87;;;13.13;;
11054;SDS011;5580;50.106;8.702;2023-05-20T13:09:19;18.37;;;13.67;;
11054;SDS011;5580;50.106;8.702;2023-05-20T13:11:44;18.50;;;12.83;;
11054;SDS011;5580;50.106;8.702;2023-05-20T13:14:10;18.63;;;12.43;;
11054;SDS011;5580;50.106;8.702;2023-05-20T13:16:36;16.80;;;12.40;;
11054;SDS011;5580;50.106;8.702;2023-05-20T13:19:02;17.80;;;13.40;;
11054;SDS011;5580;50.106;8.702;2023-05-20T13:21:28;18.80;;;12.60;;
11054;SDS011;5580;50.106;8.702;2023-05-20T13:23:53;18.93;;;13.77;;
11054;SDS011;5580;50.106;8.702;2023-05-20T13:26:19;18.33;;;13.37;;
11054;SDS011;5580;50.106;8.702;2023-05-20T13:28:45;16.57;;;12.90;;
11054;SDS011;5580;50.106;8.702;2023-05-20T13:31:11;17.47;;;12.87;;
11054;SDS011;5580;50.106;8.702;2023-05-20T13:33:37;17.47;;;13.33;;
11054;SDS011;5580;50.106;8.702;2023-05-20T13:36:02;18.80;;;13.20;;
11054;SDS011;5580;50.106;8.702;2023-05-20T13:38:28;18.40;;;14.23;;
11054;SDS011;5580;50.106;8.702;2023-05-20T13:40:54;17.83;;;13.43;;
11054;SDS011;5580;50.106;8.702;2023-05-20T13:43:23;20.27;;;14.50;;
11054;SDS011;5580;50.106;8.702;2023-05-20T13:45:49;17.70;;;13.30;;
11054;SDS011;5580;50.106;8.702;2023-05-20T13:48:15;17.07;;;13.07;;
11054;SDS011;5580;50.106;8.702;2023-05-20T13:50:41;18.57;;;13.40;;
11054;SDS011;5580;50.106;8.702;2023-05-20T13:53:06;17.30;;;12.83;;
11054;SDS011;5580;50.106;8.702;2023-05-20T13:55:36;18.77;;;13.27;;
11054;SDS011;5580;50.106;8.702;2023-05-20T13:58:02;16.40;;;12.83;;
11054;SDS011;5580;50.106;8.702;2023-05-20T14:00:29;16.77;;;13.03;;
11054;SDS011;5580;50.106;8.702;2023-05-20T14:02:55;18.33;;;13.33;;
11054;SDS011;5580;50.106;8.702;2023-05-20T14:05:21;19.43;;;13.10;;
11054;SDS011;5580;50.106;8.702;2023-05-20T14:07:47;19.27;;;14.03;;
11054;SDS011;5580;50.106;8.702;2023-05-20T14:10:13;16.80;;;13.07;;
11054;SDS011;5580;50.106;8.702;2023-05-20T14:12:38;19.47;;;13.23;;
11054;SDS011;5580;50.106;8.702;2023-05-20T14:15:04;16.73;;;13.10;;
11054;SDS011;5580;50.106;8.702;2023-05-20T14:17:31;17.43;;;12.93;;
11054;SDS011;5580;50.106;8.702;2023-05-20T14:19:56;18.10;;;13.47;;
11054;SDS011;5580;50.106;8.702;2023-05-20T14:22:22;16.70;;;12.67;;
11054;SDS011;5580;50.106;8.702;2023-05-20T14:24:47;17.33;;;13.10;;
11054;SDS011;5580;50.106;8.702;2023-05-20T14:27:13;19.10;;;13.37;;
11054;SDS011;5580;50.106;8.702;2023-05-20T14:29:39;18.13;;;13.50;;
11054;SDS011;5580;50.106;8.702;2023-05-20T14:32:04;17.20;;;13.27;;
11054;SDS011;5580;50.106;8.702;2023-05-20T14:34:30;20.27;;;13.40;;
11054;SDS011;5580;50.106;8.702;2023-05-20T14:36:56;16.63;;;13.33;;
11054;SDS011;5580;50.106;8.702;2023-05-20T14:39:21;15.83;;;12.70;;
11054;SDS011;5580;50.106;8.702;2023-05-20T14:41:47;17.80;;;13.20;;
11054;SDS011;5580;50.106;8.702;2023-05-20T14:44:12;17.67;;;13.43;;
11054;SDS011;5580;50.106;8.702;2023-05-20T14:46:38;18.63;;;14.00;;
11054;SDS011;5580;50.106;8.702;2023-05-20T14:49:04;18.33;;;13.33;;
11054;SDS011;5580;50.106;8.702;2023-05-20T14:51:29;17.00;;;13.00;;
11054;SDS011;5580;50.106;8.702;2023-05-20T14:53:55;17.10;;;13.43;;
11054;SDS011;5580;50.106;8.702;2023-05-20T14:56:20;16.03;;;12.63;;